Park Terrace, New York
Current Conditions -  °F | °C
As of 2:53 PM on Wednesday 17 Dec 2014 (Local Time) from KBGM Reporting Station
Light Snow Light Snow  
Wind Chill: 27°   Ceiling: 600
Heat Index: 34°   Visibility: 2.5mi
Dew Point: 33°   Wind: 8mph
Humidity: 96%   Direction: 300°WNW
Pressure: 29.83"   Gusts: NA
Location:  42.0523°N, 75.9029°W
Report Text: KBGM 171953Z 30007KT 2 1/2SM -SN BR OVC006 01/01 A2983 RMK AO2 SLP114 P0001 T00110006
Loading
Personal Weather Stations






























Interactive Weather Map New forecast layout! Learn more

10-Day Weather Forecast

Advertisements
Track Severe Weather on mobile